首页
METAR-TAF:

METAR-TAF

机场 :

马德里, 西班牙

阿道弗·苏亚雷斯马德里-巴拉哈斯机场

纬度: 40-27N, 经度: 003-33W, 海拔: 609米

当前天气观测

该预报发布于23分钟前的06:30 UTC
风速2节,风向北转东北
温度 13°C
湿度 82%
气压 1019 hPa
能见度10公里或以上
1500米以下无云,无积雨云

METAR: LEMD 250630Z 03002KT CAVOK 13/10 Q1019 NOSIG

时间: 08:53 (06:53 UTC)

预报

该预报发布于1小时和53分钟前的05:00 UTC
预报有效从25日的 06点(UTC)到 26日的 12点(UTC)
风速7节,风向北转东北
能见度10公里或以上
1500米以下无云,无积雨云
几率 40% :
短暂存在
从 25日的 14点(UTC)到 25日的 19点(UTC)
少量云层高于4500英尺, 塔状积云.
几率 30%
从 25日的 14点(UTC)到 25日的 19点(UTC)
散云层高于3500英尺, 积雨云.
雷暴, 阵雨

TAF: LEMD 250500Z 2506/2612 03007KT CAVOK TX27/2515Z TN11/2506Z PROB40 TEMPO 2514/2519 FEW045TCU PROB30 2514/2519 TS SHRA SCT035CB

超过4000个机场的气象观测和天气预报(METAR&TAF报告)。

可查询的气象台以黄色和红色小点在地图上表示。

将鼠标移到小点上方,可查看气象台名称。

然后点击查看天气观测和预报。

如需切换地图:点击带黑十字的绿色按钮放大地图;点击带横线的绿色按钮缩小地图;或者点击绿色箭头查看邻近地区的地图。


METAR-TAF: